Time;durP1;ratioP1;P1;durP2;ratioP2;P2;SDS_P1;SDS_P2;PMS_P1;PMS_P2;Temp;Humidity;BMP_temperature;BMP_pressure;BME280_temperature;BME280_humidity;BME280_pressure;Samples;Min_cycle;Max_cycle;Signal;HPM_P1;HPM_P2
2021/07/15 00:02:11;;;;;;;0.77;0.22;;;16.00;99.90;;;;;;5012020;28;20039;-88
2021/07/15 00:04:37;;;;;;;1.60;0.32;;;16.00;99.90;;;;;;4994362;28;20027;-88
2021/07/15 00:07:03;;;;;;;0.82;0.10;;;16.00;99.90;;;;;;4980733;28;20181;-88
2021/07/15 00:09:29;;;;;;;3.28;0.30;;;16.00;99.90;;;;;;4979434;28;20022;-88
2021/07/15 00:11:55;;;;;;;1.58;0.40;;;15.90;99.90;;;;;;4998157;28;20033;-87
2021/07/15 00:14:22;;;;;;;0.73;0.25;;;15.90;99.90;;;;;;4982187;28;20359;-88
2021/07/15 00:16:54;;;;;;;0.55;0.10;;;15.80;99.90;;;;;;4998386;28;20023;-89
2021/07/15 00:19:23;;;;;;;2.10;0.20;;;15.80;99.90;;;;;;4981721;28;20486;-88
2021/07/15 00:21:49;;;;;;;3.03;0.35;;;15.40;99.90;;;;;;4999526;28;20022;-88
2021/07/15 00:24:17;;;;;;;0.40;0.20;;;15.50;99.90;;;;;;4981989;28;20022;-88
2021/07/15 00:26:44;;;;;;;1.13;0.22;;;15.60;99.90;;;;;;4981923;28;20030;-88
2021/07/15 00:29:09;;;;;;;1.92;0.30;;;15.60;99.90;;;;;;4981755;28;20068;-88
2021/07/15 00:31:35;;;;;;;0.50;0.28;;;15.50;99.90;;;;;;4981737;28;20026;-87
2021/07/15 00:34:02;;;;;;;0.43;0.25;;;15.50;99.90;;;;;;4981533;28;20030;-88
2021/07/15 00:36:28;;;;;;;0.30;0.20;;;15.60;99.90;;;;;;4980372;28;20026;-88
2021/07/15 00:38:53;;;;;;;3.33;0.38;;;15.50;99.90;;;;;;4981776;28;20030;-88
2021/07/15 00:41:20;;;;;;;2.65;0.20;;;15.60;99.90;;;;;;4999180;28;20026;-88
2021/07/15 00:43:46;;;;;;;0.90;0.20;;;15.60;99.90;;;;;;4999065;28;20187;-88
2021/07/15 00:46:12;;;;;;;1.30;0.20;;;15.60;99.90;;;;;;4999086;28;20062;-88
2021/07/15 00:48:38;;;;;;;0.20;0.13;;;15.60;99.90;;;;;;4981611;28;20581;-88
2021/07/15 00:51:06;;;;;;;3.53;0.40;;;15.80;99.90;;;;;;4998901;28;20467;-88
2021/07/15 00:53:32;;;;;;;2.40;0.30;;;15.70;99.90;;;;;;4980598;28;20029;-88
2021/07/15 00:55:58;;;;;;;2.13;0.20;;;15.60;99.90;;;;;;4981484;28;20442;-88
2021/07/15 00:58:24;;;;;;;0.30;0.10;;;15.70;99.90;;;;;;4998806;28;20061;-88
2021/07/15 01:00:51;;;;;;;1.45;0.10;;;15.60;99.90;;;;;;4981559;28;20029;-88
2021/07/15 01:03:19;;;;;;;1.77;0.20;;;15.60;99.90;;;;;;4980974;28;20046;-88
2021/07/15 01:05:47;;;;;;;1.17;0.20;;;15.60;99.90;;;;;;4980979;28;20050;-88
2021/07/15 01:08:14;;;;;;;2.55;0.20;;;15.80;99.90;;;;;;4981227;28;20440;-89
2021/07/15 01:11:01;;;;;;;1.05;0.30;;;15.90;99.90;;;;;;4980049;28;20485;-88
2021/07/15 01:13:50;;;;;;;1.67;0.28;;;15.90;99.90;;;;;;4980088;28;20039;-88
2021/07/15 01:16:25;;;;;;;3.50;0.20;;;15.70;99.90;;;;;;4980785;28;20030;-88
2021/07/15 01:18:56;;;;;;;;;;;15.70;99.90;;;;;;4981099;28;20034;-88
2021/07/15 01:21:56;;;;;;;0.88;0.20;;;15.60;99.90;;;;;;4980658;28;19906;-88
2021/07/15 01:24:57;;;;;;;2.40;0.35;;;15.60;99.90;;;;;;4980593;28;20082;-88
2021/07/15 01:27:41;;;;;;;2.70;0.10;;;15.60;99.90;;;;;;4980544;28;20066;-88
2021/07/15 01:30:12;;;;;;;1.07;0.20;;;15.60;99.90;;;;;;4980822;28;20026;-88
2021/07/15 01:33:15;;;;;;;1.27;0.20;;;15.60;99.90;;;;;;4980377;28;20284;-88
2021/07/15 01:35:54;;;;;;;3.03;0.20;;;15.60;99.90;;;;;;4997224;28;20030;-88
2021/07/15 01:38:23;;;;;;;3.28;0.20;;;15.60;99.90;;;;;;4979676;28;20394;-88
2021/07/15 01:40:59;;;;;;;0.22;0.08;;;15.60;99.90;;;;;;4979349;28;20027;-89
2021/07/15 01:43:34;;;;;;;3.15;0.22;;;15.60;99.90;;;;;;4979475;28;20022;-88
2021/07/15 01:46:02;;;;;;;1.15;0.10;;;15.60;99.90;;;;;;4980270;28;20124;-88
2021/07/15 01:48:29;;;;;;;1.90;0.10;;;15.60;99.90;;;;;;4980068;28;20026;-88
2021/07/15 01:50:56;;;;;;;0.70;0.40;;;15.60;99.90;;;;;;4980017;28;20029;-89
2021/07/15 01:53:22;;;;;;;0.10;0.10;;;15.40;99.90;;;;;;4980037;28;20371;-89
2021/07/15 01:55:50;;;;;;;2.45;0.10;;;15.50;99.90;;;;;;4980141;28;20022;-88
2021/07/15 01:58:16;;;;;;;5.90;0.40;;;15.20;99.90;;;;;;4980030;28;20394;-89
2021/07/15 02:00:43;;;;;;;1.90;0.10;;;15.30;99.90;;;;;;4979790;28;20414;-89
2021/07/15 02:03:09;;;;;;;1.40;0.20;;;15.30;99.90;;;;;;4978966;28;20460;-88
2021/07/15 02:05:36;;;;;;;4.43;0.30;;;15.30;99.90;;;;;;4979883;28;20117;-88
2021/07/15 02:08:04;;;;;;;0.32;0.20;;;15.30;99.90;;;;;;4980075;28;20033;-88
2021/07/15 02:10:32;;;;;;;4.95;0.20;;;15.40;99.90;;;;;;4979485;28;20478;-88
2021/07/15 02:12:58;;;;;;;0.73;0.20;;;15.40;99.90;;;;;;4978919;28;20023;-88
2021/07/15 02:15:28;;;;;;;0.73;0.10;;;15.50;99.90;;;;;;4987481;28;20037;-88
2021/07/15 02:17:56;;;;;;;1.15;0.10;;;15.40;99.90;;;;;;4995466;28;20380;-87
2021/07/15 02:20:23;;;;;;;3.42;0.10;;;15.40;99.90;;;;;;5005095;28;20025;-88
2021/07/15 02:22:50;;;;;;;0.70;0.17;;;15.40;99.90;;;;;;4979725;28;20049;-89
2021/07/15 02:25:17;;;;;;;2.13;0.10;;;15.40;99.90;;;;;;4997743;28;20037;-88
2021/07/15 02:27:47;;;;;;;4.88;0.10;;;15.20;99.90;;;;;;4979637;28;20116;-88
2021/07/15 02:30:16;;;;;;;1.13;0.22;;;15.20;99.90;;;;;;4979333;28;20037;-88
2021/07/15 02:32:56;;;;;;;0.47;0.15;;;15.10;99.90;;;;;;4979626;28;20030;-89
2021/07/15 02:35:24;;;;;;;0.60;0.10;;;15.20;99.90;;;;;;4979310;28;20034;-88
2021/07/15 02:37:54;;;;;;;2.92;0.13;;;15.30;99.90;;;;;;4979119;28;20113;-88
2021/07/15 02:40:19;;;;;;;2.67;0.20;;;15.30;99.90;;;;;;4979295;28;20193;-89
2021/07/15 02:42:46;;;;;;;2.08;0.10;;;15.00;99.90;;;;;;4979269;28;20434;-87
2021/07/15 02:45:18;;;;;;;1.05;0.40;;;15.20;99.90;;;;;;4978496;28;20390;-88
2021/07/15 02:47:46;;;;;;;6.75;0.50;;;15.10;99.90;;;;;;4979554;28;20057;-88
2021/07/15 02:50:15;;;;;;;0.57;0.10;;;15.20;99.90;;;;;;4979563;28;20093;-88
2021/07/15 02:52:42;;;;;;;0.00;0.00;;;15.10;99.90;;;;;;4979304;28;20027;-88
2021/07/15 02:55:09;;;;;;;0.95;0.10;;;15.20;99.90;;;;;;4979052;28;20496;-88
2021/07/15 02:58:03;;;;;;;3.42;0.20;;;15.40;99.90;;;;;;4979582;28;20084;-89
2021/07/15 03:00:54;;;;;;;2.53;0.30;;;15.40;99.90;;;;;;4978911;28;20025;-89
2021/07/15 03:03:49;;;;;;;1.05;0.17;;;15.50;99.90;;;;;;4978639;28;20497;-89
2021/07/15 03:06:24;;;;;;;5.07;0.30;;;15.50;99.90;;;;;;4978155;28;20023;-89
2021/07/15 03:08:56;;;;;;;4.28;0.20;;;15.50;99.90;;;;;;4978162;28;20081;-88
2021/07/15 03:11:28;;;;;;;3.17;0.15;;;15.50;99.90;;;;;;4979574;28;20033;-88
2021/07/15 03:13:57;;;;;;;0.82;0.20;;;15.60;99.90;;;;;;4979469;28;20046;-88
2021/07/15 03:16:24;;;;;;;2.67;0.30;;;15.30;99.90;;;;;;4978995;28;20117;-88
2021/07/15 03:18:50;;;;;;;3.47;0.30;;;15.10;99.90;;;;;;4978630;28;20034;-89
2021/07/15 03:21:18;;;;;;;4.20;0.20;;;15.10;99.90;;;;;;4978716;28;20022;-88
2021/07/15 03:23:46;;;;;;;2.70;0.20;;;15.20;99.90;;;;;;4996310;28;20017;-89
2021/07/15 03:26:13;;;;;;;1.50;0.20;;;15.30;99.90;;;;;;4978761;28;20100;-88
2021/07/15 03:28:40;;;;;;;1.15;0.10;;;15.30;99.90;;;;;;4995404;28;20106;-89
2021/07/15 03:31:09;;;;;;;3.80;0.20;;;15.30;99.90;;;;;;4978172;28;20030;-88
2021/07/15 03:33:38;;;;;;;0.73;0.20;;;15.30;99.90;;;;;;4979101;28;20022;-88
2021/07/15 03:36:06;;;;;;;3.55;0.30;;;15.10;99.90;;;;;;4995980;28;20027;-88
2021/07/15 03:38:33;;;;;;;4.85;0.35;;;15.20;99.90;;;;;;4978610;28;20113;-89
2021/07/15 03:41:04;;;;;;;4.28;0.30;;;15.30;99.90;;;;;;4995152;28;20503;-88
2021/07/15 03:43:32;;;;;;;6.80;0.50;;;15.30;99.90;;;;;;4976525;28;20113;-89
2021/07/15 03:45:59;;;;;;;5.68;0.20;;;15.40;99.90;;;;;;4977198;28;20117;-89
2021/07/15 03:48:27;;;;;;;7.97;0.30;;;15.30;99.90;;;;;;4980663;28;20041;-88
2021/07/15 03:51:02;;;;;;;5.22;0.30;;;15.30;99.90;;;;;;4980701;28;20081;-89
2021/07/15 03:53:28;;;;;;;2.22;0.30;;;15.30;99.90;;;;;;4980623;28;20053;-88
2021/07/15 03:55:57;;;;;;;4.03;0.35;;;15.40;99.90;;;;;;4980312;28;20074;-89
2021/07/15 03:58:24;;;;;;;4.18;0.22;;;15.40;99.90;;;;;;4980431;28;20030;-88
2021/07/15 04:00:51;;;;;;;2.10;0.35;;;15.40;99.90;;;;;;4980058;28;20494;-89
2021/07/15 04:03:21;;;;;;;7.57;0.20;;;15.40;99.90;;;;;;4997573;28;20053;-89
2021/07/15 04:05:51;;;;;;;4.22;0.30;;;15.60;99.90;;;;;;4980155;28;20034;-90
2021/07/15 04:08:19;;;;;;;1.55;0.22;;;15.70;99.90;;;;;;4980456;28;20033;-89
2021/07/15 04:10:47;;;;;;;2.40;0.30;;;15.70;99.90;;;;;;4997533;28;20030;-89
2021/07/15 04:13:14;;;;;;;1.85;0.15;;;15.70;99.90;;;;;;4979928;28;20038;-89
2021/07/15 04:15:51;;;;;;;7.13;0.35;;;15.80;99.90;;;;;;4980045;28;20026;-89
2021/07/15 04:18:19;;;;;;;1.02;0.10;;;15.80;99.90;;;;;;4997581;28;20062;-88
2021/07/15 04:20:46;;;;;;;6.50;0.40;;;15.80;99.90;;;;;;4979928;28;20038;-89
2021/07/15 04:23:12;;;;;;;1.42;0.25;;;15.80;99.90;;;;;;4979900;28;20109;-88
2021/07/15 04:25:39;;;;;;;2.47;0.20;;;15.90;99.90;;;;;;4979979;28;20026;-88
2021/07/15 04:28:06;;;;;;;7.50;0.52;;;15.70;99.90;;;;;;4979814;28;20482;-88
2021/07/15 04:30:33;;;;;;;4.70;0.20;;;15.70;99.90;;;;;;5008981;28;20023;-88
2021/07/15 04:33:08;;;;;;;3.33;0.32;;;15.80;99.90;;;;;;5013014;28;20382;-87
2021/07/15 04:35:36;;;;;;;2.83;0.20;;;15.80;99.90;;;;;;4984201;28;20030;-89
2021/07/15 04:38:04;;;;;;;3.60;0.22;;;15.80;99.90;;;;;;4980667;28;20037;-88
2021/07/15 04:40:31;;;;;;;8.35;0.30;;;15.80;99.90;;;;;;4997733;28;20029;-89
2021/07/15 04:43:05;;;;;;;3.17;0.50;;;15.90;99.90;;;;;;4979690;28;20121;-88
2021/07/15 04:45:33;;;;;;;3.50;0.20;;;15.90;99.90;;;;;;4997019;28;20026;-89
2021/07/15 04:47:59;;;;;;;8.48;0.50;;;15.70;99.90;;;;;;4979522;28;20027;-89
2021/07/15 04:50:28;;;;;;;2.85;0.22;;;15.80;99.90;;;;;;4979595;28;20124;-89
2021/07/15 04:53:00;;;;;;;2.85;0.50;;;15.80;99.90;;;;;;4979499;28;20166;-90
2021/07/15 04:55:27;;;;;;;2.80;0.30;;;15.90;99.90;;;;;;4979616;28;20026;-89
2021/07/15 04:57:54;;;;;;;4.22;0.20;;;15.90;99.90;;;;;;4978786;28;20026;-89
2021/07/15 05:00:21;;;;;;;4.80;0.43;;;15.90;99.90;;;;;;4979294;28;20062;-89
2021/07/15 05:02:53;;;;;;;10.32;0.60;;;15.80;99.90;;;;;;4996457;28;20045;-88
2021/07/15 05:05:19;;;;;;;3.50;0.50;;;15.70;99.90;;;;;;4979077;28;20024;-89
2021/07/15 05:07:44;;;;;;;2.83;0.22;;;15.50;99.90;;;;;;4979121;28;20027;-88
2021/07/15 05:10:11;;;;;;;4.05;0.60;;;15.40;99.90;;;;;;4979136;28;20030;-88
2021/07/15 05:12:37;;;;;;;0.68;0.20;;;15.50;99.90;;;;;;4979118;28;20033;-87
2021/07/15 05:15:07;;;;;;;1.65;0.30;;;15.40;99.90;;;;;;4996581;28;20034;-88
2021/07/15 05:17:33;;;;;;;6.68;0.70;;;15.40;99.90;;;;;;4996353;28;20545;-88
2021/07/15 05:19:59;;;;;;;1.67;0.25;;;15.30;99.90;;;;;;4978898;28;20019;-88
2021/07/15 05:22:25;;;;;;;5.28;0.50;;;15.40;99.90;;;;;;4996248;28;20041;-86
2021/07/15 05:24:51;;;;;;;5.93;0.40;;;15.40;99.90;;;;;;4996553;28;20102;-88
2021/07/15 05:27:16;;;;;;;8.48;0.50;;;15.40;99.90;;;;;;4979134;28;20065;-87
2021/07/15 05:29:42;;;;;;;1.13;0.30;;;15.40;99.90;;;;;;4978542;28;20105;-88
2021/07/15 05:32:08;;;;;;;1.90;0.40;;;15.50;99.90;;;;;;4978540;28;20018;-88
2021/07/15 05:34:34;;;;;;;2.40;0.35;;;15.70;99.90;;;;;;4978599;28;20033;-88
2021/07/15 05:37:03;;;;;;;7.88;0.60;;;15.70;99.90;;;;;;4996102;28;20037;-89
2021/07/15 05:39:30;;;;;;;5.32;0.40;;;15.80;99.90;;;;;;4978678;28;20029;-88
2021/07/15 05:41:55;;;;;;;10.38;0.40;;;15.90;99.90;;;;;;4978449;28;20394;-88
2021/07/15 05:44:21;;;;;;;5.20;0.40;;;15.90;99.90;;;;;;4978446;28;20027;-88
2021/07/15 05:46:47;;;;;;;6.20;0.55;;;16.10;99.90;;;;;;4978672;28;20033;-89
2021/07/15 05:49:12;;;;;;;8.32;0.40;;;16.30;99.90;;;;;;4978249;28;20490;-88
2021/07/15 05:51:38;;;;;;;4.90;0.30;;;16.40;99.90;;;;;;4978193;28;20034;-88
2021/07/15 05:54:04;;;;;;;12.00;0.82;;;16.40;99.90;;;;;;4995841;28;20026;-88
2021/07/15 05:56:30;;;;;;;6.30;0.47;;;16.40;99.90;;;;;;4978108;28;20490;-88
2021/07/15 05:58:56;;;;;;;4.07;0.40;;;16.20;99.90;;;;;;4977817;28;20026;-88
2021/07/15 06:01:22;;;;;;;4.97;0.77;;;16.30;99.90;;;;;;4977948;28;20026;-88
2021/07/15 06:03:48;;;;;;;9.25;1.00;;;16.20;99.90;;;;;;4995273;28;20038;-88
2021/07/15 06:06:14;;;;;;;7.93;0.40;;;16.20;99.90;;;;;;4978202;28;20030;-88
2021/07/15 06:08:40;;;;;;;1.92;0.30;;;16.20;99.90;;;;;;4994807;28;20030;-88
2021/07/15 06:11:05;;;;;;;1.65;0.30;;;16.10;99.90;;;;;;4977754;28;20026;-87
2021/07/15 06:13:31;;;;;;;6.75;0.63;;;16.20;99.90;;;;;;4977724;28;20041;-88
2021/07/15 06:15:57;;;;;;;2.83;0.50;;;16.30;99.90;;;;;;4977775;28;20037;-88
2021/07/15 06:18:22;;;;;;;4.88;0.50;;;16.40;99.90;;;;;;4977556;28;20536;-89
2021/07/15 06:20:48;;;;;;;9.18;0.43;;;16.50;99.90;;;;;;4977580;28;20018;-88
2021/07/15 06:23:14;;;;;;;4.68;0.40;;;16.70;99.90;;;;;;4977510;28;20043;-88
2021/07/15 06:25:40;;;;;;;0.82;0.40;;;16.90;99.90;;;;;;4977563;28;20022;-89
2021/07/15 06:28:05;;;;;;;2.88;0.38;;;17.00;99.90;;;;;;4995154;28;20027;-88
2021/07/15 06:30:31;;;;;;;8.18;0.50;;;17.00;99.90;;;;;;4977416;28;20034;-88
2021/07/15 06:32:58;;;;;;;4.57;0.30;;;17.00;99.90;;;;;;4994878;28;20026;-89
2021/07/15 06:35:24;;;;;;;5.00;0.38;;;17.10;99.90;;;;;;4977391;28;20478;-88
2021/07/15 06:37:52;;;;;;;8.68;0.52;;;17.10;99.90;;;;;;4977145;28;20057;-89
2021/07/15 06:40:20;;;;;;;3.42;0.70;;;17.10;99.90;;;;;;4977451;28;20405;-89
2021/07/15 06:42:46;;;;;;;1.55;0.20;;;17.20;99.90;;;;;;4987947;28;20038;-88
2021/07/15 06:45:12;;;;;;;3.83;0.43;;;17.30;99.90;;;;;;4992560;28;20034;-89
2021/07/15 06:47:38;;;;;;;5.95;0.45;;;17.40;99.90;;;;;;4980146;28;20022;-89
2021/07/15 06:50:06;;;;;;;2.03;0.40;;;17.50;99.90;;;;;;4977768;28;20062;-88
2021/07/15 06:52:34;;;;;;;8.45;0.80;;;17.40;99.90;;;;;;4977426;28;20026;-88
2021/07/15 06:55:02;;;;;;;0.73;0.15;;;17.60;99.90;;;;;;4977217;28;20037;-88
2021/07/15 06:57:30;;;;;;;2.97;0.30;;;17.80;99.90;;;;;;4976989;28;20058;-89
2021/07/15 06:59:56;;;;;;;3.45;0.20;;;17.80;99.90;;;;;;4977245;28;20027;-88
2021/07/15 07:02:23;;;;;;;3.35;0.45;;;18.00;99.90;;;;;;4977063;28;20046;-88
2021/07/15 07:04:49;;;;;;;0.63;0.10;;;18.00;99.90;;;;;;4994740;28;20022;-89
2021/07/15 07:07:14;;;;;;;2.78;0.50;;;18.00;99.90;;;;;;4977255;28;20455;-89
2021/07/15 07:09:40;;;;;;;2.08;0.40;;;18.00;99.90;;;;;;4977243;28;20410;-89
2021/07/15 07:12:07;;;;;;;0.43;0.10;;;17.90;99.90;;;;;;4977002;28;20085;-88
2021/07/15 07:14:32;;;;;;;1.70;0.13;;;17.90;99.90;;;;;;4977016;28;20492;-89
2021/07/15 07:16:58;;;;;;;1.23;0.20;;;17.90;99.90;;;;;;4994722;28;20101;-89
2021/07/15 07:19:24;;;;;;;1.00;0.20;;;17.90;99.90;;;;;;4976895;28;20072;-89
2021/07/15 07:21:49;;;;;;;7.28;0.52;;;18.00;99.90;;;;;;4976708;28;20033;-88
2021/07/15 07:24:15;;;;;;;2.15;0.22;;;18.10;99.90;;;;;;4994368;28;20068;-89
2021/07/15 07:26:41;;;;;;;2.55;0.40;;;17.90;99.90;;;;;;4977435;28;20018;-89
2021/07/15 07:29:07;;;;;;;0.93;0.10;;;17.90;99.90;;;;;;4976858;28;20022;-89
2021/07/15 07:31:33;;;;;;;3.85;0.50;;;17.90;99.90;;;;;;4976941;28;20026;-88
2021/07/15 07:33:59;;;;;;;2.85;0.80;;;18.10;99.90;;;;;;4976895;28;20117;-88
2021/07/15 07:36:25;;;;;;;0.43;0.13;;;18.20;99.90;;;;;;4976918;28;20133;-88
2021/07/15 07:38:51;;;;;;;1.17;0.17;;;18.50;99.90;;;;;;4976743;28;20088;-89
2021/07/15 07:41:17;;;;;;;4.80;0.30;;;18.50;99.90;;;;;;4976848;28;20529;-89
2021/07/15 07:43:43;;;;;;;0.43;0.10;;;18.50;99.90;;;;;;4976928;28;20023;-89
2021/07/15 07:46:09;;;;;;;3.42;0.30;;;18.40;99.90;;;;;;4976535;28;20069;-89
2021/07/15 07:48:35;;;;;;;1.33;0.30;;;18.40;99.90;;;;;;4976578;28;20057;-89
2021/07/15 07:51:00;;;;;;;1.38;0.17;;;18.60;99.90;;;;;;4976629;28;20125;-88
2021/07/15 07:53:28;;;;;;;2.55;0.20;;;18.80;99.90;;;;;;4976932;28;20058;-89
2021/07/15 07:55:54;;;;;;;1.10;0.10;;;18.70;99.90;;;;;;4994381;28;20475;-89
2021/07/15 07:58:21;;;;;;;1.17;0.10;;;18.60;99.90;;;;;;4976446;28;20518;-88
2021/07/15 08:00:48;;;;;;;2.20;0.10;;;18.50;99.90;;;;;;4976696;28;20080;-89
2021/07/15 08:03:17;;;;;;;1.35;0.30;;;18.50;99.90;;;;;;4976291;28;20057;-89
2021/07/15 08:05:43;;;;;;;0.85;0.20;;;18.60;99.90;;;;;;4976762;28;20029;-89
2021/07/15 08:08:09;;;;;;;0.60;0.20;;;18.80;99.90;;;;;;4976394;28;20181;-89
2021/07/15 08:10:36;;;;;;;1.25;0.10;;;18.90;99.90;;;;;;4994072;28;20022;-88
2021/07/15 08:13:02;;;;;;;0.82;0.20;;;18.60;99.90;;;;;;4976560;28;20036;-88
2021/07/15 08:15:28;;;;;;;2.47;0.10;;;18.30;99.90;;;;;;4976616;28;20037;-88
2021/07/15 08:17:53;;;;;;;0.52;0.10;;;18.20;99.90;;;;;;4976316;28;20026;-89
2021/07/15 08:20:19;;;;;;;1.30;0.20;;;18.10;99.90;;;;;;4976578;28;20025;-88
2021/07/15 08:22:45;;;;;;;1.10;0.20;;;18.10;99.90;;;;;;4976234;28;20102;-88
2021/07/15 08:25:13;;;;;;;0.10;0.03;;;18.10;99.90;;;;;;4993688;28;20073;-88
2021/07/15 08:27:39;;;;;;;0.40;0.13;;;18.00;99.90;;;;;;4976320;28;20375;-89
2021/07/15 08:30:07;;;;;;;0.68;0.20;;;17.90;99.90;;;;;;4976519;28;20117;-88
2021/07/15 08:32:33;;;;;;;0.60;0.10;;;17.80;99.90;;;;;;4995200;28;20033;-88
2021/07/15 08:34:59;;;;;;;0.73;0.20;;;17.80;99.90;;;;;;4980006;28;20479;-88
2021/07/15 08:37:25;;;;;;;0.30;0.10;;;17.70;99.90;;;;;;4997180;28;20022;-88
2021/07/15 08:39:50;;;;;;;1.13;0.20;;;17.70;99.90;;;;;;4991514;28;20098;-87
2021/07/15 08:42:17;;;;;;;0.45;0.10;;;17.80;99.90;;;;;;5000391;28;20057;-87
2021/07/15 08:44:44;;;;;;;0.28;0.05;;;18.10;99.90;;;;;;4984516;28;20394;-88
2021/07/15 08:47:13;;;;;;;5.03;0.40;;;18.40;99.90;;;;;;4980084;28;20058;-88
2021/07/15 08:49:39;;;;;;;1.25;0.20;;;18.70;99.90;;;;;;4979648;28;20022;-88
2021/07/15 08:52:05;;;;;;;1.17;0.10;;;18.90;99.90;;;;;;4979474;28;20023;-89
2021/07/15 08:54:37;;;;;;;0.85;0.30;;;18.90;99.90;;;;;;4996780;28;20059;-88
2021/07/15 08:57:03;;;;;;;1.25;0.20;;;18.70;99.90;;;;;;4996855;28;20022;-88
2021/07/15 08:59:29;;;;;;;0.88;0.20;;;18.50;99.90;;;;;;4979067;28;20022;-88
2021/07/15 09:01:56;;;;;;;2.55;0.20;;;18.40;99.90;;;;;;4980772;28;20381;-87
2021/07/15 09:04:23;;;;;;;4.03;0.20;;;18.30;99.90;;;;;;4979096;28;20027;-88
2021/07/15 09:06:50;;;;;;;0.13;0.03;;;18.30;99.90;;;;;;4979206;28;20023;-88
2021/07/15 09:09:16;;;;;;;1.13;0.10;;;18.40;99.90;;;;;;4979125;28;20033;-88
2021/07/15 09:11:42;;;;;;;0.15;0.15;;;18.50;99.90;;;;;;4978913;28;20383;-88
2021/07/15 09:14:14;;;;;;;0.90;0.20;;;18.60;99.90;;;;;;4996241;28;20433;-88
2021/07/15 09:16:51;;;;;;;0.20;0.10;;;18.50;99.90;;;;;;4978883;28;20033;-88
2021/07/15 09:19:19;;;;;;;2.33;0.20;;;18.50;99.90;;;;;;4978818;28;20019;-89
2021/07/15 09:21:45;;;;;;;3.28;0.25;;;18.50;99.90;;;;;;4978711;28;20026;-88
2021/07/15 09:24:28;;;;;;;0.75;0.20;;;18.60;99.90;;;;;;4978794;28;20080;-88
2021/07/15 09:26:54;;;;;;;0.30;0.10;;;18.70;99.90;;;;;;4978700;28;20077;-88
2021/07/15 09:29:20;;;;;;;7.43;0.30;;;19.00;99.90;;;;;;4996169;28;20421;-88
2021/07/15 09:31:58;;;;;;;0.90;0.15;;;19.40;99.90;;;;;;4996460;28;20076;-88
2021/07/15 09:34:29;;;;;;;0.10;0.00;;;19.70;99.90;;;;;;4978412;28;20026;-88
2021/07/15 09:36:56;;;;;;;0.25;0.10;;;19.80;99.90;;;;;;4978536;28;20031;-88
2021/07/15 09:39:28;;;;;;;0.32;0.20;;;19.90;99.90;;;;;;4995742;28;20050;-88
2021/07/15 09:42:14;;;;;;;3.72;0.40;;;19.70;99.90;;;;;;4978226;28;20538;-89
2021/07/15 09:44:43;;;;;;;0.35;0.10;;;19.40;99.90;;;;;;4977103;28;20033;-87
2021/07/15 09:47:50;;;;;;;0.40;0.05;;;19.30;99.90;;;;;;4978246;28;20390;-87
2021/07/15 09:50:16;;;;;;;0.98;0.77;;;19.40;99.90;;;;;;4901042;29;20034;-88
2021/07/15 09:52:45;;;;;;;0.20;0.10;;;19.40;99.90;;;;;;4916687;29;20028;-88
2021/07/15 09:55:27;;;;;;;0.10;0.10;;;19.60;99.90;;;;;;4955031;28;20070;-88
2021/07/15 09:58:07;;;;;;;0.20;0.08;;;19.70;99.90;;;;;;4978056;28;20097;-88
2021/07/15 10:00:45;;;;;;;0.08;0.08;;;19.90;99.90;;;;;;4977891;28;20018;-88
2021/07/15 10:03:12;;;;;;;0.85;0.20;;;20.20;99.90;;;;;;4977682;28;20046;-88
2021/07/15 10:05:49;;;;;;;0.98;0.10;;;20.20;99.90;;;;;;4995339;28;20018;-88
2021/07/15 10:08:26;;;;;;;1.85;0.10;;;20.20;99.90;;;;;;4978637;28;20022;-88
2021/07/15 10:10:53;;;;;;;0.45;0.20;;;20.50;99.90;;;;;;4977753;28;20500;-88
2021/07/15 10:13:21;;;;;;;0.60;0.20;;;20.60;99.90;;;;;;4977730;28;20081;-89
2021/07/15 10:15:49;;;;;;;0.10;0.00;;;20.50;99.90;;;;;;4977808;28;20037;-88
2021/07/15 10:18:44;;;;;;;0.47;0.10;;;20.40;99.90;;;;;;4995085;28;20069;-89
2021/07/15 10:21:13;;;;;;;0.10;0.10;;;20.40;99.90;;;;;;4977566;28;20149;-89
2021/07/15 10:23:49;;;;;;;0.47;0.10;;;20.50;99.90;;;;;;4977592;28;20022;-89
2021/07/15 10:26:15;;;;;;;0.47;0.10;;;20.40;99.90;;;;;;4977488;28;20050;-89
2021/07/15 10:28:46;;;;;;;2.75;0.28;;;20.10;99.90;;;;;;4977540;28;20069;-89
2021/07/15 10:31:13;;;;;;;0.65;0.15;;;19.60;99.90;;;;;;4977336;28;20555;-88
2021/07/15 10:33:42;;;;;;;2.47;0.30;;;19.50;99.90;;;;;;4977361;28;20026;-88
2021/07/15 10:36:08;;;;;;;0.43;0.30;;;19.40;99.90;;;;;;4977321;28;20501;-89
2021/07/15 10:38:39;;;;;;;0.82;0.28;;;19.20;99.90;;;;;;4977085;28;20073;-89
2021/07/15 10:41:06;;;;;;;0.25;0.20;;;19.20;99.90;;;;;;4994734;28;20027;-89
2021/07/15 10:43:33;;;;;;;0.30;0.20;;;19.30;99.90;;;;;;4993169;28;20030;-87
2021/07/15 10:46:01;;;;;;;0.30;0.15;;;19.60;99.90;;;;;;4998259;28;20018;-88
2021/07/15 10:48:28;;;;;;;0.50;0.10;;;19.70;99.90;;;;;;4980488;28;20030;-88
2021/07/15 10:50:54;;;;;;;2.38;0.20;;;19.90;99.90;;;;;;4977864;28;20026;-89
2021/07/15 10:53:21;;;;;;;1.48;0.10;;;19.90;99.90;;;;;;4994699;28;20073;-89
2021/07/15 10:55:51;;;;;;;1.13;0.30;;;19.80;99.90;;;;;;4976725;28;20030;-89
2021/07/15 10:58:43;;;;;;;2.28;0.38;;;19.60;99.90;;;;;;4994398;28;20054;-88
2021/07/15 11:01:10;;;;;;;3.88;0.30;;;19.50;99.90;;;;;;4977134;28;20561;-89
2021/07/15 11:03:35;;;;;;;1.25;0.30;;;19.50;99.90;;;;;;4976846;28;20077;-89
2021/07/15 11:06:01;;;;;;;0.60;0.38;;;19.40;99.90;;;;;;4976947;28;20057;-89
2021/07/15 11:08:48;;;;;;;0.70;0.20;;;19.50;99.90;;;;;;4976774;28;20027;-89
2021/07/15 11:11:14;;;;;;;0.43;0.30;;;19.70;99.90;;;;;;4994374;28;20026;-88
2021/07/15 11:13:40;;;;;;;0.95;0.40;;;19.80;99.90;;;;;;4994197;28;20069;-89
2021/07/15 11:16:07;;;;;;;3.78;0.50;;;19.80;99.90;;;;;;4976782;28;20034;-89
2021/07/15 11:18:45;;;;;;;0.80;0.47;;;19.80;99.90;;;;;;4976821;28;20461;-90
2021/07/15 11:21:27;;;;;;;0.70;0.32;;;19.70;99.90;;;;;;4976688;28;20022;-89
2021/07/15 11:24:35;;;;;;;0.65;0.40;;;19.70;99.90;;;;;;4976737;28;20039;-89
2021/07/15 11:27:28;;;;;;;0.80;0.40;;;19.70;99.90;;;;;;4966219;28;20038;-89
2021/07/15 11:29:54;;;;;;;0.85;0.30;;;19.90;99.90;;;;;;4976703;28;20027;-89
2021/07/15 11:32:28;;;;;;;0.63;0.30;;;20.10;99.90;;;;;;4976544;28;20023;-89
2021/07/15 11:34:55;;;;;;;0.80;0.55;;;20.30;99.90;;;;;;4994024;28;20056;-89
2021/07/15 11:37:34;;;;;;;0.28;0.20;;;20.30;99.90;;;;;;4976457;28;20030;-89
2021/07/15 11:40:01;;;;;;;0.28;0.20;;;20.40;99.90;;;;;;4976608;28;20026;-89
2021/07/15 11:42:36;;;;;;;0.60;0.30;;;20.60;99.90;;;;;;4993923;28;20533;-89
2021/07/15 11:45:09;;;;;;;0.20;0.20;;;20.40;99.90;;;;;;4976654;28;20022;-89
2021/07/15 11:47:54;;;;;;;0.27;0.27;;;20.30;99.90;;;;;;4993989;28;20384;-89
2021/07/15 11:50:33;;;;;;;;;;;20.10;99.90;;;;;;4976914;28;20023;-89
2021/07/15 11:53:14;;;;;;;1.10;0.50;;;20.20;99.90;;;;;;4977061;28;20322;-89
2021/07/15 11:55:40;;;;;;;0.35;0.35;;;20.10;99.90;;;;;;4976409;28;20046;-90
2021/07/15 11:58:06;;;;;;;0.85;0.43;;;20.10;99.90;;;;;;4976445;28;20030;-90
2021/07/15 12:00:31;;;;;;;2.65;0.43;;;20.00;99.90;;;;;;4976529;28;20410;-89
2021/07/15 12:02:58;;;;;;;1.17;0.50;;;19.80;99.90;;;;;;4976266;28;20038;-90
2021/07/15 12:05:29;;;;;;;2.15;0.38;;;19.50;99.90;;;;;;4993827;28;20069;-89
2021/07/15 12:08:14;;;;;;;0.60;0.43;;;19.40;99.90;;;;;;4995812;28;20018;-89
2021/07/15 12:10:47;;;;;;;0.68;0.40;;;19.50;99.90;;;;;;4980073;28;20457;-89
2021/07/15 12:13:17;;;;;;;0.98;0.50;;;19.70;99.90;;;;;;4980157;28;20393;-89
2021/07/15 12:15:45;;;;;;;2.28;0.55;;;19.90;99.90;;;;;;4980096;28;20393;-89
2021/07/15 12:18:16;;;;;;;1.38;0.55;;;20.10;99.90;;;;;;4979916;28;20066;-89
2021/07/15 12:20:49;;;;;;;0.40;0.40;;;20.40;99.90;;;;;;4980056;28;20101;-90
2021/07/15 12:23:32;;;;;;;0.75;0.50;;;20.60;99.90;;;;;;4979962;28;20022;-89
2021/07/15 12:25:58;;;;;;;0.88;0.50;;;20.70;99.90;;;;;;4997507;28;20093;-89
2021/07/15 12:28:27;;;;;;;0.52;0.40;;;20.80;99.90;;;;;;4979859;28;20031;-89
2021/07/15 12:30:54;;;;;;;0.52;0.45;;;20.70;99.90;;;;;;4963976;28;20037;-89
2021/07/15 12:33:23;;;;;;;0.80;0.43;;;20.40;99.90;;;;;;4979661;28;20398;-89
2021/07/15 12:35:51;;;;;;;2.15;0.95;;;20.50;99.90;;;;;;4979667;28;20026;-90
2021/07/15 12:38:26;;;;;;;1.00;0.70;;;20.50;99.90;;;;;;4980052;28;20022;-91
2021/07/15 12:41:05;;;;;;;;;;;20.60;99.90;;;;;;4997922;28;20129;-90
2021/07/15 12:43:39;;;;;;;0.60;0.50;;;20.90;99.90;;;;;;5000051;28;19910;-89
2021/07/15 12:46:09;;;;;;;;;;;21.20;99.90;;;;;;4996059;28;20525;-89
2021/07/15 12:48:45;;;;;;;1.30;0.70;;;20.90;99.90;;;;;;4981154;28;19992;-89
2021/07/15 12:51:12;;;;;;;0.40;0.40;;;20.80;99.90;;;;;;4998435;28;20027;-90
2021/07/15 12:53:48;;;;;;;4.13;0.52;;;20.70;99.90;;;;;;4979714;28;20482;-89
2021/07/15 12:56:25;;;;;;;0.40;0.40;;;20.60;99.90;;;;;;4979838;28;20034;-89
2021/07/15 12:59:04;;;;;;;0.40;0.40;;;20.40;99.90;;;;;;4979498;28;20080;-89
2021/07/15 13:01:30;;;;;;;1.08;0.70;;;20.10;99.90;;;;;;4979358;28;20030;-89